Joseph, Utah
Current Conditions -  °F | °C
As of 12:52 AM on Monday 22 Dec 2014 (Local Time) from KMLF Reporting Station
Overcast Overcast  
Wind Chill: 31°   Ceiling: 8500
Heat Index: 37°   Visibility: 10mi
Dew Point: 32°   Wind: 8mph
Humidity: 82%   Direction: 160°SSE
Pressure: 30.05"   Gusts: NA
Location:  38.63°N, 112.22°W
Report Text: KMLF 220752Z AUTO 16007KT 10SM FEW065 OVC085 03/00 A3005 RMK AO2 SLP162 T00280000 TSNO
Loading
Personal Weather Stations






























Interactive Weather Map New forecast layout! Learn more

10-Day Weather Forecast

Advertisements
Track Severe Weather on mobile